Spring Garden, Alabama
Current Conditions -  °F | °C
As of 12:35 PM on Wednesday 26 Nov 2014 (Local Time) from KGAD Reporting Station
Clear Clear  
Wind Chill: 54°   Ceiling: Unl
Heat Index: 54°   Visibility: 10mi
Dew Point: 25°   Wind: 6mph
Humidity: 33%   Direction: 290°WNW
Pressure: 30.11"   Gusts: NA
Location:  33.97°N, 85.55°W
Report Text: KGAD 261835Z 29005KT 10SM CLR 12/M04 A3011 RMK AO1
Loading
Personal Weather Stations






























Interactive Weather Map New forecast layout! Learn more

10-Day Weather Forecast

Advertisements
Track Severe Weather on mobile